Temp: 4.0°C   Baro: 1036.7mb
  Wind: 2.0mph   Dir: WNW (287°)
  Rain: 0.0mm (0.0mm/hr)
  Solar: 0W/m2  Hum: 85%

Historic data

Bath Spa Weather Station Historical Data
Daily Summary for December 17, 2019 Units:  Both    English   Metric
Daily Weekly Monthly Yearly Custom
  High: Low: Average:
Temperature: 43.9 °F /  6.6 °C 36.5 °F /  2.5 °C 41.1 °F /  5.1 °C
Dew Point: 42.8 °F /  6 °C 35.2 °F /  1.8 °C 39.9 °F /  4.4 °C
Humidity: 96% 93% 95%
Wind Speed: 3.7mph /  6km/h - 0.4mph /  0.6km/h
Wind Gust: 13mph /  20.9km/h - -
Wind- - South
Pressure: 29.72 in /  1006.3 hPa 29.45 in /  997.2 hPa -
Precipitation: 0.07 in /  1.78 mm    
Historical Graphs
 
 
Tabular Data for December 17, 2019
Time Temperature Dew Point Pressure Wind Wind Speed Wind Gust Humidity Rainfall Rate (Hourly) solar
00:09 41.7 °F /  5.4 °C 40.1 °F /  4.5 °C 29.45in /  997.2hPa Calm     94% 0.00in /  0mm 0 W/m2
00:14 41.7 °F /  5.4 °C 40.1 °F /  4.5 °C 29.45in /  997.2hPa Calm     94% 0.00in /  0mm 0 W/m2
00:19 41.7 °F /  5.4 °C 40.1 °F /  4.5 °C 29.45in /  997.2hPa Calm     94% 0.00in /  0mm 0 W/m2
00:24 41.7 °F /  5.4 °C 40.1 °F /  4.5 °C 29.45in /  997.2hPa Calm     94% 0.00in /  0mm 0 W/m2
00:29 41.6 °F /  5.3 °C 39.9 °F /  4.4 °C 29.45in /  997.2hPa Calm     93.6% 0.00in /  0mm 0 W/m2
00:34 41.5 °F /  5.3 °C 39.7 °F /  4.3 °C 29.46in /  997.5hPa Calm     93% 0.00in /  0mm 0 W/m2
00:39 41.5 °F /  5.3 °C 39.8 °F /  4.3 °C 29.46in /  997.5hPa Calm     93.4% 0.00in /  0mm 0 W/m2
00:44 41.4 °F /  5.2 °C 39.7 °F /  4.3 °C 29.46in /  997.5hPa Calm     94% 0.00in /  0mm 0 W/m2
00:49 41.4 °F /  5.2 °C 39.7 °F /  4.3 °C 29.46in /  997.5hPa Calm     94% 0.00in /  0mm 0 W/m2
00:54 41.4 °F /  5.2 °C 39.7 °F /  4.3 °C 29.46in /  997.5hPa Calm     94% 0.00in /  0mm 0 W/m2
00:59 41.4 °F /  5.2 °C 39.7 °F /  4.3 °C 29.46in /  997.5hPa South 0.2mph /  0.3km/h 1mph /  1.6km/h 94% 0.00in /  0mm 0 W/m2
01:04 41.4 °F /  5.2 °C 39.7 °F /  4.3 °C 29.46in /  997.5hPa South 0.2mph /  0.3km/h 1mph /  1.6km/h 94% 0.00in /  0mm 0 W/m2
01:09 41.3 °F /  5.2 °C 39.7 °F /  4.3 °C 29.46in /  997.5hPa Calm   2mph /  3.2km/h 94% 0.00in /  0mm 0 W/m2
01:14 41.2 °F /  5.1 °C 39.6 °F /  4.2 °C 29.46in /  997.5hPa Calm     94% 0.00in /  0mm 0 W/m2
01:19 41.2 °F /  5.1 °C 39.6 °F /  4.2 °C 29.46in /  997.5hPa Calm     94% 0.00in /  0mm 0 W/m2
01:24 41.2 °F /  5.1 °C 39.6 °F /  4.2 °C 29.46in /  997.5hPa Calm     94% 0.00in /  0mm 0 W/m2
01:29 41.2 °F /  5.1 °C 39.6 °F /  4.2 °C 29.46in /  997.5hPa Calm     94% 0.00in /  0mm 0 W/m2
01:34 41.2 °F /  5.1 °C 39.6 °F /  4.2 °C 29.46in /  997.5hPa Calm     94% 0.00in /  0mm 0 W/m2
01:39 41.2 °F /  5.1 °C 39.6 °F /  4.2 °C 29.46in /  997.5hPa Calm     94% 0.00in /  0mm 0 W/m2
01:44 41.2 °F /  5.1 °C 39.6 °F /  4.2 °C 29.46in /  997.5hPa Calm     94% 0.00in /  0mm 0 W/m2
01:49 41.2 °F /  5.1 °C 39.6 °F /  4.2 °C 29.46in /  997.5hPa Calm     94% 0.00in /  0mm 0 W/m2
01:54 41.2 °F /  5.1 °C 39.6 °F /  4.2 °C 29.46in /  997.5hPa Calm     94% 0.00in /  0mm 0 W/m2
01:59 41.2 °F /  5.1 °C 39.6 °F /  4.2 °C 29.46in /  997.5hPa Calm     94% 0.00in /  0mm 0 W/m2
02:04 41.2 °F /  5.1 °C 39.6 °F /  4.2 °C 29.46in /  997.5hPa Calm     94% 0.00in /  0mm 0 W/m2
02:09 41.2 °F /  5.1 °C 39.6 °F /  4.2 °C 29.45in /  997.2hPa Calm     94% 0.00in /  0mm 0 W/m2
02:14 41.2 °F /  5.1 °C 39.6 °F /  4.2 °C 29.45in /  997.2hPa Calm     94% 0.00in /  0mm 0 W/m2
02:19 41.2 °F /  5.1 °C 39.6 °F /  4.2 °C 29.45in /  997.2hPa Calm     94% 0.00in /  0mm 0 W/m2
02:24 41.2 °F /  5.1 °C 39.6 °F /  4.2 °C 29.45in /  997.2hPa South 0.2mph /  0.3km/h 1mph /  1.6km/h 94% 0.00in /  0mm 0 W/m2
02:29 41 °F /  5 °C 39.4 °F /  4.1 °C 29.46in /  997.5hPa Calm   1mph /  1.6km/h 94% 0.00in /  0mm 0 W/m2
02:34 41 °F /  5 °C 39.4 °F /  4.1 °C 29.46in /  997.5hPa Calm     94% 0.00in /  0mm 0 W/m2
02:39 41 °F /  5 °C 39.4 °F /  4.1 °C 29.46in /  997.5hPa Calm     94% 0.00in /  0mm 0 W/m2
02:44 41.1 °F /  5.1 °C 39.5 °F /  4.2 °C 29.46in /  997.5hPa Calm     94% 0.00in /  0mm 0 W/m2
02:49 41 °F /  5 °C 39.4 °F /  4.1 °C 29.46in /  997.5hPa Calm     94% 0.00in /  0mm 0 W/m2
02:54 41.1 °F /  5.1 °C 39.5 °F /  4.2 °C 29.46in /  997.5hPa Calm     94% 0.00in /  0mm 0 W/m2
02:59 41.2 °F /  5.1 °C 39.6 °F /  4.2 °C 29.46in /  997.5hPa Calm   1mph /  1.6km/h 94% 0.00in /  0mm 0 W/m2
03:04 41 °F /  5 °C 39.4 °F /  4.1 °C 29.46in /  997.5hPa South 0.8mph /  1.3km/h 3mph /  4.8km/h 94% 0.00in /  0mm 0 W/m2
03:08 41 °F /  5 °C 39.4 °F /  4.1 °C 29.46in /  997.5hPa South 0.2mph /  0.3km/h 3mph /  4.8km/h 94% 0.00in /  0mm 0 W/m2
03:14 41.1 °F /  5.1 °C 39.5 °F /  4.2 °C 29.46in /  997.5hPa Calm   2mph /  3.2km/h 94% 0.00in /  0mm 0 W/m2
03:19 41.2 °F /  5.1 °C 39.6 °F /  4.2 °C 29.45in /  997.2hPa South 0.2mph /  0.3km/h 2mph /  3.2km/h 94% 0.00in /  0mm 0 W/m2
03:24 41.2 °F /  5.1 °C 39.6 °F /  4.2 °C 29.45in /  997.2hPa Calm   1mph /  1.6km/h 94% 0.00in /  0mm 0 W/m2
03:29 41.2 °F /  5.1 °C 39.6 °F /  4.2 °C 29.45in /  997.2hPa Calm     94% 0.00in /  0mm 0 W/m2
03:34 41.2 °F /  5.1 °C 39.6 °F /  4.2 °C 29.45in /  997.2hPa Calm     94% 0.00in /  0mm 0 W/m2
03:39 41.2 °F /  5.1 °C 39.6 °F /  4.2 °C 29.45in /  997.2hPa Calm     94% 0.00in /  0mm 0 W/m2
03:44 41.2 °F /  5.1 °C 39.7 °F /  4.3 °C 29.45in /  997.2hPa Calm     94.2% 0.00in /  0mm 0 W/m2
03:49 41.2 °F /  5.1 °C 39.6 °F /  4.2 °C 29.45in /  997.2hPa Calm     94% 0.00in /  0mm 0 W/m2
03:54 41.2 °F /  5.1 °C 39.6 °F /  4.2 °C 29.45in /  997.2hPa Calm     94% 0.00in /  0mm 0 W/m2
03:59 41.2 °F /  5.1 °C 39.7 °F /  4.3 °C 29.45in /  997.2hPa Calm     94.4% 0.00in /  0mm 0 W/m2
04:04 41.2 °F /  5.1 °C 39.9 °F /  4.4 °C 29.45in /  997.2hPa Calm     95% 0.00in /  0mm 0 W/m2
04:09 41.2 °F /  5.1 °C 39.9 °F /  4.4 °C 29.45in /  997.2hPa South 0.2mph /  0.3km/h 1mph /  1.6km/h 95% 0.00in /  0mm 0 W/m2
04:14 41.2 °F /  5.1 °C 39.9 °F /  4.4 °C 29.45in /  997.2hPa Calm   1mph /  1.6km/h 95% 0.00in /  0mm 0 W/m2
04:19 41.2 °F /  5.1 °C 39.9 °F /  4.4 °C 29.45in /  997.2hPa Calm     95% 0.00in /  0mm 0 W/m2
04:24 41.2 °F /  5.1 °C 39.9 °F /  4.4 °C 29.45in /  997.2hPa Calm     95% 0.00in /  0mm 0 W/m2
04:29 41.2 °F /  5.1 °C 39.9 °F /  4.4 °C 29.45in /  997.2hPa Calm     95% 0.00in /  0mm 0 W/m2
04:34 41.2 °F /  5.1 °C 39.9 °F /  4.4 °C 29.45in /  997.2hPa Calm     95% 0.00in /  0mm 0 W/m2
04:39 41.2 °F /  5.1 °C 39.9 °F /  4.4 °C 29.45in /  997.2hPa Calm     95% 0.00in /  0mm 0 W/m2
04:44 41.2 °F /  5.1 °C 39.9 °F /  4.4 °C 29.46in /  997.5hPa Calm     95% 0.00in /  0mm 0 W/m2
04:49 41.4 °F /  5.2 °C 40.1 °F /  4.5 °C 29.46in /  997.5hPa Calm     95% 0.01in /  0.25mm 0 W/m2
04:54 41.4 °F /  5.2 °C 40.1 °F /  4.5 °C 29.46in /  997.5hPa Calm     95% 0.01in /  0.25mm 0 W/m2
04:59 41.3 °F /  5.2 °C 40.1 °F /  4.5 °C 29.46in /  997.5hPa Calm     95% 0.01in /  0.25mm 0 W/m2
05:04 41.4 °F /  5.2 °C 40.1 °F /  4.5 °C 29.46in /  997.5hPa Calm     95% 0.01in /  0.25mm 0 W/m2
05:09 41.4 °F /  5.2 °C 40.1 °F /  4.5 °C 29.46in /  997.5hPa Calm     95% 0.01in /  0.25mm 0 W/m2
05:14 41.4 °F /  5.2 °C 40.1 °F /  4.5 °C 29.45in /  997.2hPa Calm     95% 0.02in /  0.51mm 0 W/m2
05:19 41.4 °F /  5.2 °C 40.1 °F /  4.5 °C 29.45in /  997.2hPa Calm     95% 0.02in /  0.51mm 0 W/m2
05:24 41.4 °F /  5.2 °C 40.1 °F /  4.5 °C 29.45in /  997.2hPa Calm     95% 0.02in /  0.51mm 0 W/m2
05:29 41.4 °F /  5.2 °C 40.1 °F /  4.5 °C 29.45in /  997.2hPa Calm     95% 0.02in /  0.51mm 0 W/m2
05:34 41.4 °F /  5.2 °C 40.1 °F /  4.5 °C 29.45in /  997.2hPa Calm     95% 0.02in /  0.51mm 0 W/m2
05:38 41.4 °F /  5.2 °C 40.1 °F /  4.5 °C 29.45in /  997.2hPa Calm     95% 0.02in /  0.51mm 0 W/m2
05:44 41.4 °F /  5.2 °C 40.1 °F /  4.5 °C 29.45in /  997.2hPa Calm     95% 0.03in /  0.76mm 0 W/m2
05:49 41.4 °F /  5.2 °C 40.1 °F /  4.5 °C 29.45in /  997.2hPa Calm     95% 0.02in /  0.51mm 0 W/m2
05:54 41.4 °F /  5.2 °C 40.1 °F /  4.5 °C 29.45in /  997.2hPa Calm     95% 0.02in /  0.51mm 0 W/m2
05:59 41.5 °F /  5.3 °C 40.3 °F /  4.6 °C 29.45in /  997.2hPa Calm     95% 0.02in /  0.51mm 0 W/m2
06:04 41.5 °F /  5.3 °C 40.3 °F /  4.6 °C 29.45in /  997.2hPa Calm     95% 0.02in /  0.51mm 0 W/m2
06:09 41.4 °F /  5.2 °C 40.1 °F /  4.5 °C 29.45in /  997.2hPa Calm     95% 0.02in /  0.51mm 0 W/m2
06:14 41.4 °F /  5.2 °C 40.1 °F /  4.5 °C 29.45in /  997.2hPa Calm     95% 0.02in /  0.51mm 0 W/m2
06:18 41.4 °F /  5.2 °C 40.1 °F /  4.5 °C 29.45in /  997.2hPa Calm     95% 0.02in /  0.51mm 0 W/m2
06:24 41.4 °F /  5.2 °C 40.1 °F /  4.5 °C 29.45in /  997.2hPa Calm     95% 0.02in /  0.51mm 0 W/m2
06:29 41.4 °F /  5.2 °C 40.1 °F /  4.5 °C 29.45in /  997.2hPa Calm     95% 0.01in /  0.25mm 0 W/m2
06:34 41.4 °F /  5.2 °C 40.1 °F /  4.5 °C 29.45in /  997.2hPa Calm     95% 0.01in /  0.25mm 0 W/m2
06:39 41.4 °F /  5.2 °C 40.1 °F /  4.5 °C 29.46in /  997.5hPa Calm     95% 0.01in /  0.25mm 0 W/m2
06:44 41.4 °F /  5.2 °C 40.1 °F /  4.5 °C 29.46in /  997.5hPa Calm   1mph /  1.6km/h 95% 0.01in /  0.25mm 0 W/m2
06:49 41.4 °F /  5.2 °C 40.1 °F /  4.5 °C 29.46in /  997.5hPa South 0.6mph /  1km/h 2mph /  3.2km/h 95% 0.00in /  0mm 0 W/m2
06:54 41.4 °F /  5.2 °C 40.1 °F /  4.5 °C 29.46in /  997.5hPa Calm   1mph /  1.6km/h 95% 0.00in /  0mm 0 W/m2
06:59 41.4 °F /  5.2 °C 40.1 °F /  4.5 °C 29.47in /  997.9hPa Calm   1mph /  1.6km/h 95% 0.00in /  0mm 0 W/m2
07:04 41.3 °F /  5.2 °C 40 °F /  4.4 °C 29.47in /  997.9hPa South 0.8mph /  1.3km/h 2mph /  3.2km/h 95% 0.00in /  0mm 0 W/m2
07:09 41.2 °F /  5.1 °C 39.9 °F /  4.4 °C 29.47in /  997.9hPa South 0.5mph /  0.8km/h 2mph /  3.2km/h 95% 0.00in /  0mm 0 W/m2
07:14 41.2 °F /  5.1 °C 39.9 °F /  4.4 °C 29.47in /  997.9hPa Calm   1mph /  1.6km/h 95% 0.01in /  0.25mm 0 W/m2
07:19 41.2 °F /  5.1 °C 39.9 °F /  4.4 °C 29.47in /  997.9hPa South 0.4mph /  0.6km/h 2mph /  3.2km/h 95% 0.01in /  0.25mm 0 W/m2
07:24 41.2 °F /  5.1 °C 39.9 °F /  4.4 °C 29.47in /  997.9hPa South 0.2mph /  0.3km/h 2mph /  3.2km/h 95% 0.01in /  0.25mm 0 W/m2
07:29 41.2 °F /  5.1 °C 39.9 °F /  4.4 °C 29.47in /  997.9hPa Calm   2mph /  3.2km/h 95% 0.01in /  0.25mm 0 W/m2
07:33 41.2 °F /  5.1 °C 39.8 °F /  4.3 °C 29.47in /  997.9hPa Calm     95% 0.01in /  0.25mm 0 W/m2
07:39 41.2 °F /  5.1 °C 39.9 °F /  4.4 °C 29.47in /  997.9hPa Calm     95% 0.01in /  0.25mm 0 W/m2
07:44 41.2 °F /  5.1 °C 39.9 °F /  4.4 °C 29.47in /  997.9hPa Calm     95% 0.01in /  0.25mm 0 W/m2
07:49 41.2 °F /  5.1 °C 39.9 °F /  4.4 °C 29.47in /  997.9hPa Calm     95% 0.01in /  0.25mm 0 W/m2
07:54 41.2 °F /  5.1 °C 39.9 °F /  4.4 °C 29.47in /  997.9hPa Calm     95% 0.01in /  0.25mm 0 W/m2
07:59 41.2 °F /  5.1 °C 39.9 °F /  4.4 °C 29.47in /  997.9hPa Calm     95% 0.01in /  0.25mm 0 W/m2
08:04 41.2 °F /  5.1 °C 39.9 °F /  4.4 °C 29.47in /  997.9hPa South 0.6mph /  1km/h 3mph /  4.8km/h 95% 0.01in /  0.25mm 0 W/m2
08:09 41.3 °F /  5.2 °C 40 °F /  4.4 °C 29.48in /  998.2hPa South 2mph /  3.2km/h 5mph /  8km/h 95.3% 0.01in /  0.25mm 0 W/m2
08:14 41.3 °F /  5.2 °C 40.1 °F /  4.5 °C 29.48in /  998.2hPa South 1.7mph /  2.7km/h 3mph /  4.8km/h 95.8% 0.01in /  0.25mm 0 W/m2
08:19 41.4 °F /  5.2 °C 40.3 °F /  4.6 °C 29.48in /  998.2hPa South 2.4mph /  3.9km/h 5mph /  8km/h 95.8% 0.00in /  0mm 0 W/m2
08:24 41.2 °F /  5.1 °C 39.9 °F /  4.4 °C 29.48in /  998.2hPa South 0.2mph /  0.3km/h 5mph /  8km/h 95% 0.00in /  0mm 0 W/m2
08:29 41.3 °F /  5.2 °C 40.1 °F /  4.5 °C 29.49in /  998.5hPa South 0.2mph /  0.3km/h 3mph /  4.8km/h 95.8% 0.00in /  0mm 0 W/m2
08:34 41.4 °F /  5.2 °C 40.3 °F /  4.6 °C 29.49in /  998.5hPa Calm     96% 0.00in /  0mm 7 W/m2
08:39 41.7 °F /  5.4 °C 40.6 °F /  4.8 °C 29.49in /  998.5hPa Calm     96% 0.00in /  0mm 7 W/m2
08:44 41.9 °F /  5.5 °C 40.8 °F /  4.9 °C 29.49in /  998.5hPa Calm     96% 0.00in /  0mm 7 W/m2
08:49 41.9 °F /  5.5 °C 40.8 °F /  4.9 °C 29.49in /  998.5hPa Calm     96% 0.00in /  0mm 11 W/m2
08:54 42.1 °F /  5.6 °C 41 °F /  5 °C 29.49in /  998.5hPa South 0.2mph /  0.3km/h 1mph /  1.6km/h 96% 0.00in /  0mm 12 W/m2
08:59 42.1 °F /  5.6 °C 41 °F /  5 °C 29.50in /  998.9hPa South 0.6mph /  1km/h 2mph /  3.2km/h 96% 0.00in /  0mm 12 W/m2
09:04 42.1 °F /  5.6 °C 41 °F /  5 °C 29.50in /  998.9hPa Calm   2mph /  3.2km/h 96% 0.00in /  0mm 12 W/m2
09:09 42.1 °F /  5.6 °C 41 °F /  5 °C 29.50in /  998.9hPa South 0.8mph /  1.3km/h 4mph /  6.4km/h 96% 0.00in /  0mm 12 W/m2
09:14 42.1 °F /  5.6 °C 41 °F /  5 °C 29.51in /  999.2hPa South 0.9mph /  1.4km/h 4mph /  6.4km/h 96% 0.00in /  0mm 11 W/m2
09:19 42.1 °F /  5.6 °C 41 °F /  5 °C 29.51in /  999.2hPa Calm   1mph /  1.6km/h 96% 0.00in /  0mm 12 W/m2
09:24 42.1 °F /  5.6 °C 41 °F /  5 °C 29.51in /  999.2hPa South 0.8mph /  1.3km/h 4mph /  6.4km/h 96% 0.00in /  0mm 14 W/m2
09:29 42.1 °F /  5.6 °C 41 °F /  5 °C 29.51in /  999.2hPa South 0.7mph /  1.1km/h 4mph /  6.4km/h 96% 0.00in /  0mm 12 W/m2
09:34 41.9 °F /  5.5 °C 40.8 °F /  4.9 °C 29.52in /  999.5hPa South 1.7mph /  2.7km/h 4mph /  6.4km/h 96% 0.00in /  0mm 12 W/m2
09:39 41.9 °F /  5.5 °C 40.8 °F /  4.9 °C 29.52in /  999.5hPa South 2.1mph /  3.4km/h 4mph /  6.4km/h 96% 0.00in /  0mm 12 W/m2
09:44 41.9 °F /  5.5 °C 40.8 °F /  4.9 °C 29.52in /  999.5hPa South 1.8mph /  2.9km/h 5mph /  8km/h 96% 0.00in /  0mm 12 W/m2
09:49 42 °F /  5.6 °C 40.9 °F /  4.9 °C 29.52in /  999.5hPa South 0.2mph /  0.3km/h 5mph /  8km/h 96% 0.00in /  0mm 14 W/m2
09:54 42.1 °F /  5.6 °C 41 °F /  5 °C 29.52in /  999.5hPa South 1mph /  1.6km/h 4mph /  6.4km/h 96% 0.00in /  0mm 18 W/m2
09:59 42 °F /  5.6 °C 40.9 °F /  4.9 °C 29.52in /  999.5hPa South 0.8mph /  1.3km/h 4mph /  6.4km/h 96% 0.00in /  0mm 19 W/m2
10:04 42 °F /  5.6 °C 40.9 °F /  4.9 °C 29.52in /  999.5hPa South 1.4mph /  2.3km/h 6mph /  9.7km/h 96% 0.01in /  0.25mm 18 W/m2
10:09 42.1 °F /  5.6 °C 41 °F /  5 °C 29.53in /  999.9hPa South 1mph /  1.6km/h 6mph /  9.7km/h 96% 0.01in /  0.25mm 16 W/m2
10:14 42 °F /  5.6 °C 40.9 °F /  4.9 °C 29.53in /  999.9hPa Calm     96% 0.01in /  0.25mm 18 W/m2
10:19 41.9 °F /  5.5 °C 40.8 °F /  4.9 °C 29.53in /  999.9hPa Calm     96% 0.02in /  0.51mm 23 W/m2
10:24 41.9 °F /  5.5 °C 40.8 °F /  4.9 °C 29.53in /  999.9hPa Calm     96% 0.02in /  0.51mm 28 W/m2
10:29 41.9 °F /  5.5 °C 40.8 °F /  4.9 °C 29.53in /  999.9hPa Calm     96% 0.02in /  0.51mm 28 W/m2
10:34 41.9 °F /  5.5 °C 40.8 °F /  4.9 °C 29.53in /  999.9hPa South 3mph /  4.8km/h 6mph /  9.7km/h 96% 0.03in /  0.76mm 28 W/m2
10:39 42.1 °F /  5.6 °C 41 °F /  5 °C 29.54in /  1000.2hPa South 0.6mph /  1km/h 4mph /  6.4km/h 96% 0.03in /  0.76mm 26 W/m2
10:44 42.3 °F /  5.7 °C 41.2 °F /  5.1 °C 29.54in /  1000.2hPa Calm   2mph /  3.2km/h 96% 0.03in /  0.76mm 30 W/m2
10:49 42.3 °F /  5.7 °C 41.2 °F /  5.1 °C 29.54in /  1000.2hPa Calm     96% 0.03in /  0.76mm 33 W/m2
10:54 42.2 °F /  5.7 °C 41.1 °F /  5.1 °C 29.54in /  1000.2hPa Calm     96% 0.03in /  0.76mm 33 W/m2
10:59 42.3 °F /  5.7 °C 41.2 °F /  5.1 °C 29.53in /  999.9hPa Calm     96% 0.03in /  0.76mm 37 W/m2
11:03 42.1 °F /  5.6 °C 41 °F /  5 °C 29.53in /  999.9hPa Calm     96% 0.02in /  0.51mm 37 W/m2
11:09 42.2 °F /  5.7 °C 41.1 °F /  5.1 °C 29.53in /  999.9hPa Calm     96% 0.02in /  0.51mm 37 W/m2
11:14 42.3 °F /  5.7 °C 41.3 °F /  5.2 °C 29.53in /  999.9hPa Calm     96% 0.02in /  0.51mm 37 W/m2
11:19 42.4 °F /  5.8 °C 41.4 °F /  5.2 °C 29.52in /  999.5hPa Calm     96% 0.02in /  0.51mm 65 W/m2
11:24 42.6 °F /  5.9 °C 41.5 °F /  5.3 °C 29.52in /  999.5hPa Calm     96% 0.01in /  0.25mm 69 W/m2
11:29 42.7 °F /  5.9 °C 41.6 °F /  5.3 °C 29.52in /  999.5hPa South 0.2mph /  0.3km/h 1mph /  1.6km/h 96% 0.01in /  0.25mm 67 W/m2
11:33 42.7 °F /  5.9 °C 41.6 °F /  5.3 °C 29.52in /  999.5hPa South 1.2mph /  1.9km/h 4mph /  6.4km/h 96% 0.00in /  0mm 63 W/m2
11:39 42.7 °F /  5.9 °C 41.6 °F /  5.3 °C 29.53in /  999.9hPa South 1.6mph /  2.6km/h 4mph /  6.4km/h 96% 0.00in /  0mm 58 W/m2
11:44 42.7 °F /  5.9 °C 41.6 °F /  5.3 °C 29.53in /  999.9hPa South 3.2mph /  5.1km/h 6mph /  9.7km/h 96% 0.00in /  0mm 47 W/m2
11:49 42.6 °F /  5.9 °C 41.5 °F /  5.3 °C 29.53in /  999.9hPa South 0.7mph /  1.1km/h 5mph /  8km/h 96% 0.00in /  0mm 39 W/m2
11:54 42.6 °F /  5.9 °C 41.5 °F /  5.3 °C 29.53in /  999.9hPa South 0.4mph /  0.6km/h 5mph /  8km/h 96% 0.00in /  0mm 33 W/m2
11:59 42.7 °F /  5.9 °C 41.6 °F /  5.3 °C 29.54in /  1000.2hPa Calm   4mph /  6.4km/h 96% 0.00in /  0mm 32 W/m2
12:04 43 °F /  6.1 °C 41.9 °F /  5.5 °C 29.54in /  1000.2hPa South 0.2mph /  0.3km/h 2mph /  3.2km/h 96% 0.00in /  0mm 33 W/m2
12:09 43 °F /  6.1 °C 41.9 °F /  5.5 °C 29.54in /  1000.2hPa Calm     96% 0.00in /  0mm 35 W/m2
12:14 43.2 °F /  6.2 °C 42.1 °F /  5.6 °C 29.54in /  1000.2hPa South 0.4mph /  0.6km/h 2mph /  3.2km/h 96% 0.00in /  0mm 33 W/m2
12:19 43 °F /  6.1 °C 41.9 °F /  5.5 °C 29.54in /  1000.2hPa South 0.4mph /  0.6km/h 4mph /  6.4km/h 96% 0.00in /  0mm 35 W/m2
12:24 43.2 °F /  6.2 °C 42.1 °F /  5.6 °C 29.54in /  1000.2hPa Calm   1mph /  1.6km/h 96% 0.00in /  0mm 33 W/m2
12:29 43.2 °F /  6.2 °C 42.1 °F /  5.6 °C 29.54in /  1000.2hPa Calm   2mph /  3.2km/h 96% 0.00in /  0mm 37 W/m2
12:34 43.2 °F /  6.2 °C 42.1 °F /  5.6 °C 29.54in /  1000.2hPa South 0.6mph /  1km/h 3mph /  4.8km/h 96% 0.00in /  0mm 39 W/m2
12:39 43.2 °F /  6.2 °C 42.1 °F /  5.6 °C 29.54in /  1000.2hPa South 2.6mph /  4.2km/h 6mph /  9.7km/h 96% 0.00in /  0mm 49 W/m2
12:44 43.2 °F /  6.2 °C 42.2 °F /  5.7 °C 29.54in /  1000.2hPa South 1.2mph /  1.9km/h 5mph /  8km/h 96% 0.00in /  0mm 49 W/m2
12:49 43.3 °F /  6.3 °C 42.2 °F /  5.7 °C 29.54in /  1000.2hPa South 0.4mph /  0.6km/h 3mph /  4.8km/h 96% 0.00in /  0mm 58 W/m2
12:54 43.3 °F /  6.3 °C 42.3 °F /  5.7 °C 29.54in /  1000.2hPa South 1mph /  1.6km/h 3mph /  4.8km/h 96% 0.00in /  0mm 54 W/m2
12:59 43.5 °F /  6.4 °C 42.4 °F /  5.8 °C 29.55in /  1000.6hPa South 1.3mph /  2.1km/h 3mph /  4.8km/h 96% 0.00in /  0mm 51 W/m2
13:04 43.5 °F /  6.4 °C 42.4 °F /  5.8 °C 29.55in /  1000.6hPa South 0.8mph /  1.3km/h 3mph /  4.8km/h 96% 0.00in /  0mm 47 W/m2
13:09 43.5 °F /  6.4 °C 42.4 °F /  5.8 °C 29.55in /  1000.6hPa South 1.2mph /  1.9km/h 4mph /  6.4km/h 96% 0.00in /  0mm 44 W/m2
13:14 43.5 °F /  6.4 °C 42.4 °F /  5.8 °C 29.54in /  1000.2hPa South 0.8mph /  1.3km/h 3mph /  4.8km/h 96% 0.00in /  0mm 53 W/m2
13:19 43.3 °F /  6.3 °C 42.3 °F /  5.7 °C 29.54in /  1000.2hPa South 0.2mph /  0.3km/h 3mph /  4.8km/h 96% 0.00in /  0mm 49 W/m2
13:24 43.5 °F /  6.4 °C 42.4 °F /  5.8 °C 29.55in /  1000.6hPa South 1.4mph /  2.3km/h 4mph /  6.4km/h 96% 0.00in /  0mm 49 W/m2
13:29 43.4 °F /  6.3 °C 42.3 °F /  5.7 °C 29.55in /  1000.6hPa South 0.8mph /  1.3km/h 4mph /  6.4km/h 96% 0.00in /  0mm 58 W/m2
13:34 43.5 °F /  6.4 °C 42.4 °F /  5.8 °C 29.55in /  1000.6hPa South 0.2mph /  0.3km/h 3mph /  4.8km/h 96% 0.00in /  0mm 63 W/m2
13:39 43.7 °F /  6.5 °C 42.6 °F /  5.9 °C 29.55in /  1000.6hPa Calm   2mph /  3.2km/h 96% 0.00in /  0mm 65 W/m2
13:44 43.7 °F /  6.5 °C 42.6 °F /  5.9 °C 29.55in /  1000.6hPa South 0.7mph /  1.1km/h 3mph /  4.8km/h 96% 0.00in /  0mm 60 W/m2
13:49 43.5 °F /  6.4 °C 42.4 °F /  5.8 °C 29.55in /  1000.6hPa South 0.2mph /  0.3km/h 3mph /  4.8km/h 96% 0.00in /  0mm 63 W/m2
13:54 43.5 °F /  6.4 °C 42.4 °F /  5.8 °C 29.55in /  1000.6hPa South 0.4mph /  0.6km/h 3mph /  4.8km/h 96% 0.00in /  0mm 62 W/m2
13:59 43.6 °F /  6.4 °C 42.5 °F /  5.8 °C 29.55in /  1000.6hPa South 1.2mph /  1.9km/h 5mph /  8km/h 96% 0.00in /  0mm 56 W/m2
14:03 43.6 °F /  6.4 °C 42.5 °F /  5.8 °C 29.55in /  1000.6hPa South 2mph /  3.2km/h 5mph /  8km/h 96% 0.00in /  0mm 54 W/m2
14:09 43.6 °F /  6.4 °C 42.5 °F /  5.8 °C 29.56in /  1000.9hPa South 1.5mph /  2.4km/h 4mph /  6.4km/h 96% 0.00in /  0mm 56 W/m2
14:14 43.6 °F /  6.4 °C 42.5 °F /  5.8 °C 29.56in /  1000.9hPa South 1.6mph /  2.6km/h 6mph /  9.7km/h 96% 0.00in /  0mm 51 W/m2
14:19 43.7 °F /  6.5 °C 42.6 °F /  5.9 °C 29.56in /  1000.9hPa South 0.2mph /  0.3km/h 6mph /  9.7km/h 96% 0.00in /  0mm 56 W/m2
14:24 43.9 °F /  6.6 °C 42.8 °F /  6 °C 29.56in /  1000.9hPa South 1.4mph /  2.3km/h 5mph /  8km/h 96% 0.00in /  0mm 56 W/m2
14:29 43.8 °F /  6.6 °C 42.7 °F /  5.9 °C 29.56in /  1000.9hPa South 0.4mph /  0.6km/h 3mph /  4.8km/h 96% 0.00in /  0mm 39 W/m2
14:34 43.8 °F /  6.6 °C 42.7 °F /  5.9 °C 29.57in /  1001.2hPa SSW 3mph /  4.8km/h 5mph /  8km/h 96% 0.00in /  0mm 28 W/m2
14:39 43.6 °F /  6.4 °C 42.5 °F /  5.8 °C 29.57in /  1001.2hPa SSW 2.7mph /  4.3km/h 8mph /  12.9km/h 96% 0.00in /  0mm 28 W/m2
14:44 43.7 °F /  6.5 °C 42.6 °F /  5.9 °C 29.57in /  1001.2hPa SSW 1.2mph /  1.9km/h 4mph /  6.4km/h 96% 0.00in /  0mm 28 W/m2
14:49 43.5 °F /  6.4 °C 42.4 °F /  5.8 °C 29.57in /  1001.2hPa SSW 3mph /  4.8km/h 5mph /  8km/h 96% 0.00in /  0mm 25 W/m2
14:54 43.5 °F /  6.4 °C 42.4 °F /  5.8 °C 29.57in /  1001.2hPa SSW 2mph /  3.2km/h 4mph /  6.4km/h 96% 0.00in /  0mm 28 W/m2
14:59 43.7 °F /  6.5 °C 42.6 °F /  5.9 °C 29.57in /  1001.2hPa SSW 1.2mph /  1.9km/h 3mph /  4.8km/h 96% 0.00in /  0mm 23 W/m2
15:04 43.9 °F /  6.6 °C 42.8 °F /  6 °C 29.57in /  1001.2hPa SSW 1.8mph /  2.9km/h 4mph /  6.4km/h 96% 0.00in /  0mm 21 W/m2
15:09 43.6 °F /  6.4 °C 42.5 °F /  5.8 °C 29.57in /  1001.2hPa SSW 2.3mph /  3.7km/h 13mph /  20.9km/h 96% 0.00in /  0mm 16 W/m2
15:14 43.5 °F /  6.4 °C 42.4 °F /  5.8 °C 29.57in /  1001.2hPa SSW 2mph /  3.2km/h 5mph /  8km/h 96% 0.00in /  0mm 12 W/m2
15:19 43.5 °F /  6.4 °C 42.4 °F /  5.8 °C 29.58in /  1001.6hPa SSW 0.6mph /  1km/h 4mph /  6.4km/h 96% 0.00in /  0mm 11 W/m2
15:24 43.5 °F /  6.4 °C 42.4 °F /  5.8 °C 29.58in /  1001.6hPa SSW 1.2mph /  1.9km/h 3mph /  4.8km/h 96% 0.00in /  0mm 9 W/m2
15:29 43.5 °F /  6.4 °C 42.4 °F /  5.8 °C 29.58in /  1001.6hPa SSW 1.2mph /  1.9km/h 4mph /  6.4km/h 96% 0.00in /  0mm 7 W/m2
15:34 43.5 °F /  6.4 °C 42.4 °F /  5.8 °C 29.58in /  1001.6hPa SSW 0.9mph /  1.4km/h 4mph /  6.4km/h 96% 0.00in /  0mm 7 W/m2
15:39 43.5 °F /  6.4 °C 42.4 °F /  5.8 °C 29.58in /  1001.6hPa SSW 0.8mph /  1.3km/h 3mph /  4.8km/h 96% 0.00in /  0mm 0 W/m2
15:44 43.5 °F /  6.4 °C 42.4 °F /  5.8 °C 29.58in /  1001.6hPa SSW 0.6mph /  1km/h 3mph /  4.8km/h 96% 0.00in /  0mm 0 W/m2
15:49 43.4 °F /  6.3 °C 42.4 °F /  5.8 °C 29.58in /  1001.6hPa SSW 2.4mph /  3.9km/h 4mph /  6.4km/h 96% 0.00in /  0mm 0 W/m2
15:54 43.3 °F /  6.3 °C 42.3 °F /  5.7 °C 29.59in /  1001.9hPa SSW 3.7mph /  6km/h 5mph /  8km/h 96% 0.00in /  0mm 0 W/m2
15:59 43.3 °F /  6.3 °C 42.2 °F /  5.7 °C 29.59in /  1001.9hPa SSW 2mph /  3.2km/h 5mph /  8km/h 96% 0.00in /  0mm 0 W/m2
16:04 43.2 °F /  6.2 °C 42.1 °F /  5.6 °C 29.59in /  1001.9hPa SSW 2.4mph /  3.9km/h 4mph /  6.4km/h 96% 0.00in /  0mm 0 W/m2
16:09 43.1 °F /  6.2 °C 42 °F /  5.6 °C 29.59in /  1001.9hPa SSW 2.4mph /  3.9km/h 6mph /  9.7km/h 96% 0.00in /  0mm 0 W/m2
16:14 43 °F /  6.1 °C 41.9 °F /  5.5 °C 29.59in /  1001.9hPa SSW 2.8mph /  4.5km/h 5mph /  8km/h 96% 0.00in /  0mm 0 W/m2
16:19 43 °F /  6.1 °C 41.9 °F /  5.5 °C 29.59in /  1001.9hPa SSW 0.4mph /  0.6km/h 4mph /  6.4km/h 96% 0.00in /  0mm 0 W/m2
16:24 43 °F /  6.1 °C 41.9 °F /  5.5 °C 29.59in /  1001.9hPa SSW 0.2mph /  0.3km/h 2mph /  3.2km/h 96% 0.00in /  0mm 0 W/m2
16:29 43 °F /  6.1 °C 41.7 °F /  5.4 °C 29.59in /  1001.9hPa Calm   1mph /  1.6km/h 95.2% 0.00in /  0mm 0 W/m2
16:34 43 °F /  6.1 °C 41.7 °F /  5.4 °C 29.59in /  1001.9hPa SSW 0.2mph /  0.3km/h 1mph /  1.6km/h 95% 0.00in /  0mm 0 W/m2
16:39 43 °F /  6.1 °C 41.7 °F /  5.4 °C 29.60in /  1002.3hPa Calm   1mph /  1.6km/h 95% 0.00in /  0mm 0 W/m2
16:44 43 °F /  6.1 °C 41.7 °F /  5.4 °C 29.60in /  1002.3hPa SSW 0.4mph /  0.6km/h 2mph /  3.2km/h 95% 0.00in /  0mm 0 W/m2
16:49 43 °F /  6.1 °C 41.7 °F /  5.4 °C 29.60in /  1002.3hPa Calm   2mph /  3.2km/h 95% 0.00in /  0mm 0 W/m2
16:54 43 °F /  6.1 °C 41.7 °F /  5.4 °C 29.60in /  1002.3hPa Calm     95% 0.00in /  0mm 0 W/m2
16:59 42.8 °F /  6 °C 41.5 °F /  5.3 °C 29.60in /  1002.3hPa Calm     95% 0.00in /  0mm 0 W/m2
17:04 42.6 °F /  5.9 °C 41.4 °F /  5.2 °C 29.60in /  1002.3hPa Calm     95% 0.00in /  0mm 0 W/m2
17:09 42.3 °F /  5.7 °C 41.1 °F /  5.1 °C 29.61in /  1002.6hPa Calm     95% 0.00in /  0mm 0 W/m2
17:14 42.1 °F /  5.6 °C 40.8 °F /  4.9 °C 29.61in /  1002.6hPa Calm     95% 0.00in /  0mm 0 W/m2
17:19 41.7 °F /  5.4 °C 40.5 °F /  4.7 °C 29.61in /  1002.6hPa Calm     95% 0.00in /  0mm 0 W/m2
17:24 41.4 °F /  5.2 °C 40.1 °F /  4.5 °C 29.61in /  1002.6hPa Calm     95% 0.00in /  0mm 0 W/m2
17:29 41.2 °F /  5.1 °C 39.9 °F /  4.4 °C 29.61in /  1002.6hPa Calm     95% 0.00in /  0mm 0 W/m2
17:34 41.2 °F /  5.1 °C 39.9 °F /  4.4 °C 29.61in /  1002.6hPa Calm     95% 0.00in /  0mm 0 W/m2
17:39 41.2 °F /  5.1 °C 39.9 °F /  4.4 °C 29.62in /  1002.9hPa Calm     95% 0.00in /  0mm 0 W/m2
17:44 41.2 °F /  5.1 °C 39.9 °F /  4.4 °C 29.62in /  1002.9hPa Calm     95% 0.00in /  0mm 0 W/m2
17:49 41.2 °F /  5.1 °C 39.9 °F /  4.4 °C 29.62in /  1002.9hPa SSW 0.8mph /  1.3km/h 2mph /  3.2km/h 95% 0.00in /  0mm 0 W/m2
17:53 41.2 °F /  5.1 °C 39.9 °F /  4.4 °C 29.62in /  1002.9hPa Calm     95% 0.00in /  0mm 0 W/m2
17:59 41.2 °F /  5.1 °C 39.9 °F /  4.4 °C 29.62in /  1002.9hPa Calm   1mph /  1.6km/h 95% 0.00in /  0mm 0 W/m2
18:04 41.2 °F /  5.1 °C 39.9 °F /  4.4 °C 29.62in /  1002.9hPa Calm   1mph /  1.6km/h 95% 0.00in /  0mm 0 W/m2
18:09 41.2 °F /  5.1 °C 39.9 °F /  4.4 °C 29.63in /  1003.3hPa Calm     95% 0.00in /  0mm 0 W/m2
18:14 41 °F /  5 °C 39.7 °F /  4.3 °C 29.63in /  1003.3hPa Calm     95% 0.00in /  0mm 0 W/m2
18:19 40.9 °F /  4.9 °C 39.7 °F /  4.3 °C 29.63in /  1003.3hPa Calm     95% 0.00in /  0mm 0 W/m2
18:24 40.8 °F /  4.9 °C 39.6 °F /  4.2 °C 29.63in /  1003.3hPa Calm     95% 0.00in /  0mm 0 W/m2
18:29 40.7 °F /  4.8 °C 39.5 °F /  4.2 °C 29.63in /  1003.3hPa Calm     95% 0.00in /  0mm 0 W/m2
18:34 40.6 °F /  4.8 °C 39.4 °F /  4.1 °C 29.63in /  1003.3hPa Calm     95% 0.00in /  0mm 0 W/m2
18:39 40.5 °F /  4.7 °C 39.2 °F /  4 °C 29.63in /  1003.3hPa Calm     95% 0.00in /  0mm 0 W/m2
18:44 40.3 °F /  4.6 °C 39.1 °F /  3.9 °C 29.64in /  1003.6hPa Calm     95% 0.00in /  0mm 0 W/m2
18:49 40.1 °F /  4.5 °C 38.8 °F /  3.8 °C 29.64in /  1003.6hPa SSW 0.2mph /  0.3km/h 1mph /  1.6km/h 95% 0.00in /  0mm 0 W/m2
18:54 39.9 °F /  4.4 °C 38.7 °F /  3.7 °C 29.64in /  1003.6hPa Calm   2mph /  3.2km/h 95% 0.00in /  0mm 0 W/m2
18:59 39.7 °F /  4.3 °C 38.5 °F /  3.6 °C 29.64in /  1003.6hPa Calm     95% 0.00in /  0mm 0 W/m2
19:03 39.6 °F /  4.2 °C 38.3 °F /  3.5 °C 29.64in /  1003.6hPa SSW 0.3mph /  0.5km/h 1mph /  1.6km/h 95% 0.00in /  0mm 0 W/m2
19:09 39.4 °F /  4.1 °C 38.1 °F /  3.4 °C 29.64in /  1003.6hPa Calm   1mph /  1.6km/h 95% 0.00in /  0mm 0 W/m2
19:14 39.4 °F /  4.1 °C 38.1 °F /  3.4 °C 29.64in /  1003.6hPa SSW 1.6mph /  2.6km/h 4mph /  6.4km/h 95% 0.00in /  0mm 0 W/m2
19:19 39.1 °F /  3.9 °C 37.8 °F /  3.2 °C 29.64in /  1003.6hPa Calm   4mph /  6.4km/h 95% 0.00in /  0mm 0 W/m2
19:24 39 °F /  3.9 °C 37.8 °F /  3.2 °C 29.64in /  1003.6hPa Calm     95% 0.00in /  0mm 0 W/m2
19:29 38.8 °F /  3.8 °C 37.7 °F /  3.2 °C 29.64in /  1003.6hPa Calm     95% 0.00in /  0mm 0 W/m2
19:34 38.8 °F /  3.8 °C 37.6 °F /  3.1 °C 29.65in /  1003.9hPa Calm     95% 0.00in /  0mm 0 W/m2
19:39 38.6 °F /  3.7 °C 37.3 °F /  2.9 °C 29.65in /  1003.9hPa Calm     95% 0.00in /  0mm 0 W/m2
19:44 38.5 °F /  3.6 °C 37.2 °F /  2.9 °C 29.65in /  1003.9hPa Calm     95% 0.00in /  0mm 0 W/m2
19:49 38.3 °F /  3.5 °C 37 °F /  2.8 °C 29.65in /  1003.9hPa Calm     95% 0.00in /  0mm 0 W/m2
19:54 38 °F /  3.3 °C 36.8 °F /  2.7 °C 29.65in /  1003.9hPa Calm     95% 0.00in /  0mm 0 W/m2
19:59 37.8 °F /  3.2 °C 36.5 °F /  2.5 °C 29.65in /  1003.9hPa Calm     95% 0.00in /  0mm 0 W/m2
20:04 37.6 °F /  3.1 °C 36.3 °F /  2.4 °C 29.65in /  1003.9hPa Calm     95% 0.00in /  0mm 0 W/m2
20:09 37.6 °F /  3.1 °C 36.3 °F /  2.4 °C 29.65in /  1003.9hPa Calm     95% 0.00in /  0mm 0 W/m2
20:14 37.6 °F /  3.1 °C 36.3 °F /  2.4 °C 29.65in /  1003.9hPa SSW 1.6mph /  2.6km/h 4mph /  6.4km/h 95% 0.00in /  0mm 0 W/m2
20:19 37.5 °F /  3.1 °C 36.2 °F /  2.3 °C 29.66in /  1004.3hPa Calm   2mph /  3.2km/h 95% 0.00in /  0mm 0 W/m2
20:24 37.4 °F /  3 °C 36.1 °F /  2.3 °C 29.66in /  1004.3hPa Calm     95% 0.00in /  0mm 0 W/m2
20:29 37.2 °F /  2.9 °C 36 °F /  2.2 °C 29.66in /  1004.3hPa Calm     95% 0.00in /  0mm 0 W/m2
20:34 37.2 °F /  2.9 °C 36 °F /  2.2 °C 29.66in /  1004.3hPa Calm     95% 0.00in /  0mm 0 W/m2
20:39 37 °F /  2.8 °C 35.8 °F /  2.1 °C 29.66in /  1004.3hPa Calm     95% 0.00in /  0mm 0 W/m2
20:44 37 °F /  2.8 °C 35.8 °F /  2.1 °C 29.66in /  1004.3hPa Calm     95% 0.00in /  0mm 0 W/m2
20:49 36.9 °F /  2.7 °C 35.6 °F /  2 °C 29.67in /  1004.6hPa Calm     95% 0.00in /  0mm 0 W/m2
20:54 36.8 °F /  2.7 °C 35.5 °F /  1.9 °C 29.67in /  1004.6hPa Calm     95% 0.00in /  0mm 0 W/m2
20:59 36.7 °F /  2.6 °C 35.4 °F /  1.9 °C 29.67in /  1004.6hPa Calm     95% 0.00in /  0mm 0 W/m2
21:04 36.7 °F /  2.6 °C 35.4 °F /  1.9 °C 29.67in /  1004.6hPa Calm     95% 0.00in /  0mm 0 W/m2
21:09 36.7 °F /  2.6 °C 35.4 °F /  1.9 °C 29.67in /  1004.6hPa Calm     95% 0.00in /  0mm 0 W/m2
21:14 36.9 °F /  2.7 °C 35.6 °F /  2 °C 29.67in /  1004.6hPa Calm     95% 0.00in /  0mm 0 W/m2
21:19 36.9 °F /  2.7 °C 35.6 °F /  2 °C 29.68in /  1005hPa Calm     95% 0.00in /  0mm 0 W/m2
21:24 36.9 °F /  2.7 °C 35.6 °F /  2 °C 29.68in /  1005hPa Calm     95% 0.00in /  0mm 0 W/m2
21:29 36.9 °F /  2.7 °C 35.6 °F /  2 °C 29.68in /  1005hPa Calm     95% 0.00in /  0mm 0 W/m2
21:34 36.5 °F /  2.5 °C 35.2 °F /  1.8 °C 29.68in /  1005hPa Calm     95% 0.00in /  0mm 0 W/m2
21:39 36.5 °F /  2.5 °C 35.2 °F /  1.8 °C 29.68in /  1005hPa Calm     95% 0.00in /  0mm 0 W/m2
21:44 36.5 °F /  2.5 °C 35.2 °F /  1.8 °C 29.69in /  1005.3hPa Calm     95% 0.00in /  0mm 0 W/m2
21:49 36.7 °F /  2.6 °C 35.4 °F /  1.9 °C 29.69in /  1005.3hPa Calm     95% 0.00in /  0mm 0 W/m2
21:54 36.9 °F /  2.7 °C 35.6 °F /  2 °C 29.69in /  1005.3hPa Calm     95% 0.00in /  0mm 0 W/m2
21:59 37 °F /  2.8 °C 35.7 °F /  2.1 °C 29.69in /  1005.3hPa Calm     95% 0.00in /  0mm 0 W/m2
22:04 37.1 °F /  2.8 °C 35.9 °F /  2.2 °C 29.69in /  1005.3hPa Calm     95% 0.00in /  0mm 0 W/m2
22:09 37.2 °F /  2.9 °C 36 °F /  2.2 °C 29.69in /  1005.3hPa Calm     95% 0.00in /  0mm 0 W/m2
22:14 37.3 °F /  2.9 °C 36 °F /  2.2 °C 29.69in /  1005.3hPa Calm     95% 0.00in /  0mm 0 W/m2
22:19 37.5 °F /  3.1 °C 36.2 °F /  2.3 °C 29.70in /  1005.6hPa Calm     95% 0.00in /  0mm 0 W/m2
22:24 37.6 °F /  3.1 °C 36.3 °F /  2.4 °C 29.70in /  1005.6hPa Calm     95% 0.00in /  0mm 0 W/m2
22:29 37.8 °F /  3.2 °C 36.6 °F /  2.6 °C 29.70in /  1005.6hPa Calm     95% 0.00in /  0mm 0 W/m2
22:34 37.9 °F /  3.3 °C 36.7 °F /  2.6 °C 29.70in /  1005.6hPa Calm     95% 0.00in /  0mm 0 W/m2
22:39 38.1 °F /  3.4 °C 36.9 °F /  2.7 °C 29.70in /  1005.6hPa Calm     95% 0.00in /  0mm 0 W/m2
22:44 38.1 °F /  3.4 °C 36.9 °F /  2.7 °C 29.70in /  1005.6hPa Calm     95% 0.00in /  0mm 0 W/m2
22:49 38.3 °F /  3.5 °C 37 °F /  2.8 °C 29.70in /  1005.6hPa Calm     95% 0.00in /  0mm 0 W/m2
22:54 38.5 °F /  3.6 °C 37.2 °F /  2.9 °C 29.71in /  1006hPa SSW 1mph /  1.6km/h 3mph /  4.8km/h 95% 0.00in /  0mm 0 W/m2
22:59 38.5 °F /  3.6 °C 37.2 °F /  2.9 °C 29.71in /  1006hPa SSW 1mph /  1.6km/h 3mph /  4.8km/h 95% 0.00in /  0mm 0 W/m2
23:04 38.7 °F /  3.7 °C 37.4 °F /  3 °C 29.71in /  1006hPa SSW 1.2mph /  1.9km/h 3mph /  4.8km/h 95% 0.00in /  0mm 0 W/m2
23:09 38.7 °F /  3.7 °C 37.4 °F /  3 °C 29.71in /  1006hPa SSW 0.8mph /  1.3km/h 3mph /  4.8km/h 95% 0.00in /  0mm 0 W/m2
23:14 38.7 °F /  3.7 °C 37.4 °F /  3 °C 29.71in /  1006hPa Calm   2mph /  3.2km/h 95% 0.00in /  0mm 0 W/m2
23:19 38.7 °F /  3.7 °C 37.4 °F /  3 °C 29.72in /  1006.3hPa SSW 0.5mph /  0.8km/h 2mph /  3.2km/h 95% 0.00in /  0mm 0 W/m2
23:24 38.7 °F /  3.7 °C 37.4 °F /  3 °C 29.72in /  1006.3hPa Calm   2mph /  3.2km/h 95% 0.00in /  0mm 0 W/m2
23:29 38.7 °F /  3.7 °C 37.5 °F /  3.1 °C 29.72in /  1006.3hPa Calm   1mph /  1.6km/h 95.2% 0.00in /  0mm 0 W/m2
23:34 38.8 °F /  3.8 °C 37.6 °F /  3.1 °C 29.72in /  1006.3hPa SSW 0.4mph /  0.6km/h 2mph /  3.2km/h 95.2% 0.00in /  0mm 0 W/m2
23:39 38.8 °F /  3.8 °C 37.8 °F /  3.2 °C 29.72in /  1006.3hPa SSW 0.2mph /  0.3km/h 2mph /  3.2km/h 95.8% 0.00in /  0mm 0 W/m2
23:44 38.8 °F /  3.8 °C 37.8 °F /  3.2 °C 29.72in /  1006.3hPa SSW 0.8mph /  1.3km/h 3mph /  4.8km/h 96% 0.00in /  0mm 0 W/m2
23:49 38.8 °F /  3.8 °C 37.8 °F /  3.2 °C 29.72in /  1006.3hPa Calm   2mph /  3.2km/h 96% 0.00in /  0mm 0 W/m2
23:54 38.8 °F /  3.8 °C 37.8 °F /  3.2 °C 29.72in /  1006.3hPa SSW 0.4mph /  0.6km/h 2mph /  3.2km/h 96% 0.00in /  0mm 0 W/m2
23:59 38.8 °F /  3.8 °C 37.8 °F /  3.2 °C 29.72in /  1006.3hPa Calm   1mph /  1.6km/h 96% 0.00in /  0mm 0 W/m2
Bath Spa Weather
Compliments of Weather Underground - 2 mb